Time;durP1;ratioP1;P1;durP2;ratioP2;P2;SDS_P1;SDS_P2;PMS_P1;PMS_P2;Temp;Humidity;BMP_temperature;BMP_pressure;BME280_temperature;BME280_humidity;BME280_pressure;Samples;Min_cycle;Max_cycle;Signal;HPM_P1;HPM_P2
2021/10/27 00:02:19;;;;;;;67.13;18.60;;;;;;;;;;5031240;28;20468;-90
2021/10/27 00:04:44;;;;;;;64.33;19.47;;;;;;;;;;5013516;28;20446;-90
2021/10/27 00:07:09;;;;;;;59.88;17.15;;;;;;;;;;5030991;28;20617;-90
2021/10/27 00:09:35;;;;;;;71.07;17.85;;;;;;;;;;5013103;28;20108;-90
2021/10/27 00:12:01;;;;;;;76.72;16.83;;;;;;;;;;5030954;28;20026;-90
2021/10/27 00:14:26;;;;;;;77.30;18.17;;;;;;;;;;5030603;28;20024;-90
2021/10/27 00:16:51;;;;;;;53.42;14.48;;;;;;;;;;5013159;28;20045;-90
2021/10/27 00:19:17;;;;;;;62.15;15.02;;;;;;;;;;5013168;28;20030;-91
2021/10/27 00:21:42;;;;;;;52.13;13.10;;;;;;;;;;5013031;28;20033;-90
2021/10/27 00:24:07;;;;;;;57.97;15.68;;;;;;;;;;5013749;28;20021;-90
2021/10/27 00:26:33;;;;;;;57.63;15.85;;;;;;;;;;5012940;28;20021;-90
2021/10/27 00:28:58;;;;;;;72.63;17.02;;;;;;;;;;5030084;28;20922;-90
2021/10/27 00:31:23;;;;;;;77.70;16.95;;;;;;;;;;5013042;28;20053;-90
2021/10/27 00:33:49;;;;;;;71.20;17.70;;;;;;;;;;5012855;28;20072;-90
2021/10/27 00:36:15;;;;;;;72.53;17.13;;;;;;;;;;5012686;28;20021;-90
2021/10/27 00:38:40;;;;;;;74.57;18.65;;;;;;;;;;5030390;28;20105;-90
2021/10/27 00:41:07;;;;;;;63.72;18.33;;;;;;;;;;5013066;28;20017;-90
2021/10/27 00:43:32;;;;;;;65.43;19.75;;;;;;;;;;5030647;28;20488;-90
2021/10/27 00:45:58;;;;;;;65.80;18.60;;;;;;;;;;5012574;28;20065;-90
2021/10/27 00:48:23;;;;;;;69.55;20.85;;;;;;;;;;5016428;28;20029;-90
2021/10/27 00:50:48;;;;;;;73.03;20.30;;;;;;;;;;5012553;28;20025;-90
2021/10/27 00:53:14;;;;;;;68.20;23.65;;;;;;;;;;5012188;28;20296;-90
2021/10/27 00:55:39;;;;;;;61.80;20.77;;;;;;;;;;5012735;28;20393;-90
2021/10/27 00:58:05;;;;;;;68.47;21.05;;;;;;;;;;5012675;28;20014;-91
2021/10/27 01:00:30;;;;;;;63.22;21.40;;;;;;;;;;5030315;28;20037;-91
2021/10/27 01:02:56;;;;;;;58.00;22.33;;;;;;;;;;5012737;28;20029;-90
2021/10/27 01:05:21;;;;;;;81.05;24.70;;;;;;;;;;5012316;28;20124;-91
2021/10/27 01:07:46;;;;;;;66.50;25.67;;;;;;;;;;5012623;28;20021;-91
2021/10/27 01:10:12;;;;;;;68.97;24.48;;;;;;;;;;5013767;28;20034;-91
2021/10/27 01:12:37;;;;;;;73.43;25.77;;;;;;;;;;5013136;28;20103;-91
2021/10/27 01:15:03;;;;;;;68.97;23.88;;;;;;;;;;5030492;28;20092;-90
2021/10/27 01:17:28;;;;;;;64.22;24.33;;;;;;;;;;5012527;28;20018;-91
2021/10/27 01:19:58;;;;;;;70.28;24.95;;;;;;;;;;5012283;28;20366;-90
2021/10/27 01:22:31;;;;;;;54.85;21.90;;;;;;;;;;5030321;28;20562;-90
2021/10/27 01:24:57;;;;;;;44.55;20.92;;;;;;;;;;5030194;28;20037;-91
2021/10/27 01:27:23;;;;;;;52.92;20.80;;;;;;;;;;5030196;28;20055;-91
2021/10/27 01:29:49;;;;;;;58.60;22.13;;;;;;;;;;5012338;28;20108;-91
2021/10/27 01:32:21;;;;;;;67.70;22.52;;;;;;;;;;5012452;28;20021;-90
2021/10/27 01:34:46;;;;;;;63.92;21.33;;;;;;;;;;5030090;28;20032;-90
2021/10/27 01:37:12;;;;;;;70.68;24.65;;;;;;;;;;5030172;28;20017;-90
2021/10/27 01:39:37;;;;;;;75.32;25.15;;;;;;;;;;5030015;28;20037;-90
2021/10/27 01:42:02;;;;;;;72.47;23.88;;;;;;;;;;5016499;28;20139;-91
2021/10/27 01:44:27;;;;;;;62.95;22.83;;;;;;;;;;5015728;28;20025;-90
2021/10/27 01:46:53;;;;;;;69.10;23.93;;;;;;;;;;5033681;28;20386;-91
2021/10/27 01:49:18;;;;;;;78.68;22.77;;;;;;;;;;5033538;28;20268;-90
2021/10/27 01:51:46;;;;;;;72.57;23.80;;;;;;;;;;5033587;28;20083;-90
2021/10/27 01:54:11;;;;;;;64.90;19.83;;;;;;;;;;5015687;28;20054;-90
2021/10/27 01:56:36;;;;;;;63.72;22.88;;;;;;;;;;5033443;28;20100;-90
2021/10/27 01:59:02;;;;;;;73.07;21.40;;;;;;;;;;5015594;28;20025;-91
2021/10/27 02:01:28;;;;;;;63.33;21.58;;;;;;;;;;5015524;28;20027;-91
2021/10/27 02:03:53;;;;;;;65.85;21.65;;;;;;;;;;5033267;28;20060;-90
2021/10/27 02:06:18;;;;;;;77.53;22.13;;;;;;;;;;5036129;28;20125;-90
2021/10/27 02:08:43;;;;;;;69.47;20.80;;;;;;;;;;5021868;28;20029;-90
2021/10/27 02:11:09;;;;;;;64.63;20.13;;;;;;;;;;5015375;28;20024;-90
2021/10/27 02:13:35;;;;;;;67.55;21.23;;;;;;;;;;5015286;28;20037;-90
2021/10/27 02:16:00;;;;;;;67.72;21.45;;;;;;;;;;5032899;28;20021;-90
2021/10/27 02:18:25;;;;;;;61.92;21.35;;;;;;;;;;5015162;28;20025;-90
2021/10/27 02:20:50;;;;;;;57.07;20.50;;;;;;;;;;5015170;28;20067;-90
2021/10/27 02:23:16;;;;;;;74.00;20.88;;;;;;;;;;5015164;28;20268;-90
2021/10/27 02:25:41;;;;;;;59.80;21.08;;;;;;;;;;5015002;28;20504;-90
2021/10/27 02:28:07;;;;;;;70.65;21.50;;;;;;;;;;5015209;28;20025;-90
2021/10/27 02:30:32;;;;;;;73.13;22.00;;;;;;;;;;5014905;28;20018;-90
2021/10/27 02:32:57;;;;;;;60.55;19.23;;;;;;;;;;5014996;28;20263;-90
2021/10/27 02:35:23;;;;;;;70.63;23.45;;;;;;;;;;5021135;28;20084;-91
2021/10/27 02:37:48;;;;;;;71.57;21.05;;;;;;;;;;5014963;28;20025;-90
2021/10/27 02:40:14;;;;;;;75.70;21.15;;;;;;;;;;5014985;28;20108;-91
2021/10/27 02:42:41;;;;;;;66.30;18.95;;;;;;;;;;5032579;28;20096;-90
2021/10/27 02:45:07;;;;;;;59.10;18.83;;;;;;;;;;5014430;28;20140;-90
2021/10/27 02:47:32;;;;;;;71.38;18.95;;;;;;;;;;5014778;28;20017;-90
2021/10/27 02:49:58;;;;;;;80.20;20.30;;;;;;;;;;5032316;28;20047;-90
2021/10/27 02:52:23;;;;;;;64.57;18.47;;;;;;;;;;5013611;28;20068;-90
2021/10/27 02:54:48;;;;;;;56.33;17.48;;;;;;;;;;5014588;28;20354;-90
2021/10/27 02:57:13;;;;;;;62.07;19.20;;;;;;;;;;5032371;28;20415;-90
2021/10/27 02:59:38;;;;;;;52.28;15.85;;;;;;;;;;5014437;28;20264;-90
2021/10/27 03:02:04;;;;;;;56.55;17.88;;;;;;;;;;5019231;28;20021;-91
2021/10/27 03:04:29;;;;;;;62.58;19.58;;;;;;;;;;5033069;28;20025;-90
2021/10/27 03:06:54;;;;;;;61.80;17.98;;;;;;;;;;5014317;28;20541;-90
2021/10/27 03:09:20;;;;;;;72.97;18.80;;;;;;;;;;5014325;28;20025;-90
2021/10/27 03:11:45;;;;;;;56.28;16.23;;;;;;;;;;5014009;28;20053;-90
2021/10/27 03:14:10;;;;;;;65.47;17.33;;;;;;;;;;5014295;28;20028;-90
2021/10/27 03:16:36;;;;;;;64.22;16.73;;;;;;;;;;5013812;28;20261;-90
2021/10/27 03:19:01;;;;;;;65.87;18.03;;;;;;;;;;5014138;28;20025;-90
2021/10/27 03:21:26;;;;;;;58.97;18.55;;;;;;;;;;5014179;28;20260;-90
2021/10/27 03:23:51;;;;;;;72.20;17.25;;;;;;;;;;5031738;28;20024;-90
2021/10/27 03:26:17;;;;;;;65.07;18.37;;;;;;;;;;5013929;28;20086;-90
2021/10/27 03:28:42;;;;;;;59.20;16.60;;;;;;;;;;5034614;28;20267;-90
2021/10/27 03:31:07;;;;;;;58.67;17.92;;;;;;;;;;5031713;28;20021;-90
2021/10/27 03:33:33;;;;;;;70.55;17.02;;;;;;;;;;5013906;28;20049;-90
2021/10/27 03:35:58;;;;;;;61.57;16.93;;;;;;;;;;5031475;28;20064;-90
2021/10/27 03:38:23;;;;;;;66.53;16.67;;;;;;;;;;5013668;28;20771;-90
2021/10/27 03:40:49;;;;;;;67.03;18.52;;;;;;;;;;5013389;28;20271;-90
2021/10/27 03:43:14;;;;;;;56.42;17.38;;;;;;;;;;5013617;28;20040;-90
2021/10/27 03:45:40;;;;;;;69.35;17.13;;;;;;;;;;5031387;28;20063;-90
2021/10/27 03:48:05;;;;;;;61.75;16.10;;;;;;;;;;5013430;28;20017;-90
2021/10/27 03:50:30;;;;;;;60.08;16.48;;;;;;;;;;5031315;28;20030;-90
2021/10/27 03:52:55;;;;;;;67.53;17.08;;;;;;;;;;5013200;28;20104;-90
2021/10/27 03:55:21;;;;;;;66.43;16.40;;;;;;;;;;5013330;28;20022;-90
2021/10/27 03:57:46;;;;;;;72.10;17.13;;;;;;;;;;5013373;28;20190;-90
2021/10/27 04:00:12;;;;;;;70.33;19.30;;;;;;;;;;5014529;28;20021;-90
2021/10/27 04:02:38;;;;;;;63.80;16.83;;;;;;;;;;5013332;28;20272;-90
2021/10/27 04:05:04;;;;;;;59.40;16.73;;;;;;;;;;5013150;28;20061;-90
2021/10/27 04:07:29;;;;;;;65.20;17.05;;;;;;;;;;5013512;28;20060;-90
2021/10/27 04:09:54;;;;;;;66.28;17.15;;;;;;;;;;5031269;28;20048;-90
2021/10/27 04:12:20;;;;;;;67.50;17.40;;;;;;;;;;5030978;28;20017;-90
2021/10/27 04:14:45;;;;;;;65.00;16.05;;;;;;;;;;5031041;28;20068;-90
2021/10/27 04:17:10;;;;;;;65.57;18.13;;;;;;;;;;5013212;28;20425;-90
2021/10/27 04:19:35;;;;;;;69.75;17.33;;;;;;;;;;5013104;28;20022;-90
2021/10/27 04:22:01;;;;;;;56.37;14.80;;;;;;;;;;5013071;28;20116;-90
2021/10/27 04:24:27;;;;;;;73.20;18.20;;;;;;;;;;5030624;28;20276;-90
2021/10/27 04:26:53;;;;;;;75.03;17.52;;;;;;;;;;5012936;28;20032;-90
2021/10/27 04:29:18;;;;;;;74.05;15.52;;;;;;;;;;5013188;28;20572;-90
2021/10/27 04:31:43;;;;;;;73.78;15.43;;;;;;;;;;5035815;28;20057;-90
2021/10/27 04:34:09;;;;;;;61.67;15.67;;;;;;;;;;5013828;28;20112;-90
2021/10/27 04:36:34;;;;;;;68.00;17.55;;;;;;;;;;5030649;28;20489;-90
2021/10/27 04:39:00;;;;;;;68.65;14.63;;;;;;;;;;5030644;28;20017;-90
2021/10/27 04:41:25;;;;;;;76.20;15.10;;;;;;;;;;5012996;28;20843;-90
2021/10/27 04:43:50;;;;;;;60.17;13.57;;;;;;;;;;5012831;28;20045;-90
2021/10/27 04:46:15;;;;;;;54.40;12.93;;;;;;;;;;5012957;28;20288;-90
2021/10/27 04:48:41;;;;;;;57.97;14.10;;;;;;;;;;5012640;28;20271;-90
2021/10/27 04:51:06;;;;;;;72.70;14.77;;;;;;;;;;5013806;28;20036;-90
2021/10/27 04:53:31;;;;;;;85.07;15.88;;;;;;;;;;5031265;28;20283;-90
2021/10/27 04:55:56;;;;;;;63.05;12.85;;;;;;;;;;5013008;28;20026;-90
2021/10/27 04:58:22;;;;;;;70.10;14.60;;;;;;;;;;5012844;28;20120;-90
2021/10/27 05:00:47;;;;;;;72.43;14.52;;;;;;;;;;5030329;28;20017;-90
2021/10/27 05:03:12;;;;;;;76.13;16.40;;;;;;;;;;5012889;28;20055;-90
2021/10/27 05:05:45;;;;;;;75.18;14.43;;;;;;;;;;5030572;28;20856;-90
2021/10/27 05:08:11;;;;;;;74.32;15.30;;;;;;;;;;5013907;28;20017;-90
2021/10/27 05:10:36;;;;;;;60.08;12.18;;;;;;;;;;5030604;28;20022;-90
2021/10/27 05:13:01;;;;;;;65.28;14.43;;;;;;;;;;5012604;28;20028;-90
2021/10/27 05:15:26;;;;;;;60.63;13.45;;;;;;;;;;5014220;28;20409;-90
2021/10/27 05:17:52;;;;;;;61.77;12.87;;;;;;;;;;5034483;28;20025;-90
2021/10/27 05:20:17;;;;;;;64.32;13.25;;;;;;;;;;5034402;28;20024;-90
2021/10/27 05:22:42;;;;;;;80.25;15.35;;;;;;;;;;5016633;28;20373;-90
2021/10/27 05:25:08;;;;;;;67.57;15.68;;;;;;;;;;5017949;28;20064;-90
2021/10/27 05:27:34;;;;;;;65.25;13.32;;;;;;;;;;5016440;28;20630;-89
2021/10/27 05:30:04;;;;;;;65.90;14.95;;;;;;;;;;5462576;22;20056;-90
2021/10/27 05:32:42;;;;;;;61.85;14.10;;;;;;;;;;5016803;28;20103;-90
2021/10/27 05:35:10;;;;;;;66.38;12.60;;;;;;;;;;5050392;22;20057;-91
2021/10/27 05:37:38;;;;;;;71.95;12.80;;;;;;;;;;5060223;22;20065;-90
2021/10/27 05:40:10;;;;;;;56.03;12.15;;;;;;;;;;5032922;28;20107;-90
2021/10/27 05:45:11;;;;;;;66.20;13.05;;;;;;;;;;5075425;22;20053;-90
2021/10/27 05:47:49;;;;;;;63.67;13.27;;;;;;;;;;4994815;28;20022;-90
2021/10/27 05:55:55;;;;;;;65.15;11.88;;;;;;;;;;4950360;29;20074;-90
2021/10/27 05:58:25;;;;;;;61.10;12.15;;;;;;;;;;5029211;23;20056;-90
2021/10/27 06:00:51;;;;;;;56.45;12.02;;;;;;;;;;5036100;28;20887;-91
2021/10/27 06:03:18;;;;;;;56.85;11.02;;;;;;;;;;5037761;28;20523;-90
2021/10/27 06:08:16;;;;;;;61.67;10.57;;;;;;;;;;5018597;28;20150;-89
2021/10/27 06:10:46;;;;;;;60.42;10.15;;;;;;;;;;5006046;28;20107;-89
2021/10/27 06:13:16;;;;;;;55.50;11.98;;;;;;;;;;5096808;22;20088;-88
2021/10/27 06:15:42;;;;;;;54.85;10.60;;;;;;;;;;5085420;23;20056;-89
2021/10/27 06:18:07;;;;;;;63.72;11.70;;;;;;;;;;5045221;28;20021;-89
2021/10/27 06:20:33;;;;;;;66.18;11.43;;;;;;;;;;5034405;28;20496;-89
2021/10/27 06:22:58;;;;;;;59.15;12.45;;;;;;;;;;5033353;28;20032;-89
2021/10/27 06:25:37;;;;;;;62.25;11.13;;;;;;;;;;4339409;22;20441;-89
2021/10/27 06:28:09;;;;;;;62.85;11.07;;;;;;;;;;5009873;23;20058;-89
2021/10/27 06:33:22;;;;;;;51.75;11.57;;;;;;;;;;5032592;28;20049;-89
2021/10/27 06:35:56;;;;;;;61.35;11.60;;;;;;;;;;5059578;23;20132;-89
2021/10/27 06:49:00;;;;;;;51.97;11.43;;;;;;;;;;5050799;28;20107;-89
2021/10/27 06:51:29;;;;;;;58.35;12.07;;;;;;;;;;5046502;28;20095;-89
2021/10/27 06:53:58;;;;;;;68.10;13.40;;;;;;;;;;5039082;28;20041;-89
2021/10/27 06:56:24;;;;;;;57.88;11.98;;;;;;;;;;5032413;28;20055;-89
2021/10/27 06:59:07;;;;;;;56.20;12.50;;;;;;;;;;5032987;28;20028;-89
2021/10/27 07:15:37;;;;;;;52.80;10.80;;;;;;;;;;5049271;28;20039;-89
2021/10/27 07:17:49;;;;;;;56.95;11.55;;;;;;;;;;5042670;28;20076;-89
2021/10/27 07:20:20;;;;;;;63.40;11.20;;;;;;;;;;5127521;22;20543;-89
2021/10/27 07:22:48;;;;;;;49.13;11.25;;;;;;;;;;5035522;28;20652;-89
2021/10/27 07:27:50;;;;;;;51.75;11.38;;;;;;;;;;5116766;22;20130;-89
2021/10/27 07:35:31;;;;;;;54.70;9.48;;;;;;;;;;5041447;28;20096;-89
2021/10/27 07:40:45;;;;;;;50.85;9.77;;;;;;;;;;5031561;28;20943;-89
2021/10/27 07:48:08;;;;;;;49.15;8.68;;;;;;;;;;5167441;22;20056;-89
2021/10/27 07:50:35;;;;;;;35.72;8.30;;;;;;;;;;5033176;28;20020;-89
2021/10/27 07:53:03;;;;;;;36.75;7.55;;;;;;;;;;5163284;23;20280;-89
2021/10/27 07:55:28;;;;;;;38.63;8.32;;;;;;;;;;5032725;28;20033;-89
2021/10/27 07:57:55;;;;;;;46.60;8.38;;;;;;;;;;5031875;28;20395;-89
2021/10/27 08:00:21;;;;;;;39.72;8.38;;;;;;;;;;5018501;28;20052;-89
2021/10/27 08:02:47;;;;;;;44.75;8.68;;;;;;;;;;5033425;28;20484;-89
2021/10/27 08:05:12;;;;;;;46.78;9.60;;;;;;;;;;5020718;28;20033;-89
2021/10/27 08:07:48;;;;;;;37.95;7.00;;;;;;;;;;5031261;28;20028;-89
2021/10/27 08:12:49;;;;;;;45.42;8.02;;;;;;;;;;5088077;22;20232;-89
2021/10/27 08:15:15;;;;;;;39.75;7.63;;;;;;;;;;5028047;28;20067;-89
2021/10/27 08:17:40;;;;;;;41.47;7.57;;;;;;;;;;5032137;28;20116;-89
2021/10/27 08:20:06;;;;;;;44.75;8.15;;;;;;;;;;5263682;22;20060;-89
2021/10/27 08:22:32;;;;;;;35.60;6.50;;;;;;;;;;5033138;28;20107;-89
2021/10/27 08:24:58;;;;;;;39.28;7.05;;;;;;;;;;5032719;28;20217;-89
2021/10/27 08:30:02;;;;;;;39.38;7.00;;;;;;;;;;5066884;22;20138;-89
2021/10/27 08:32:40;;;;;;;40.33;6.95;;;;;;;;;;5031921;28;20214;-89
2021/10/27 08:35:06;;;;;;;29.20;7.68;;;;;;;;;;5032597;28;20081;-89
2021/10/27 08:37:31;;;;;;;41.10;6.50;;;;;;;;;;5032932;28;20111;-89
2021/10/27 08:39:56;;;;;;;38.15;7.28;;;;;;;;;;5039553;28;20021;-89
2021/10/27 08:42:22;;;;;;;36.78;7.15;;;;;;;;;;5012961;28;20112;-89
2021/10/27 08:44:49;;;;;;;35.25;6.47;;;;;;;;;;5021412;28;20068;-89
2021/10/27 08:47:15;;;;;;;45.13;7.75;;;;;;;;;;5032334;28;20742;-89
2021/10/27 08:49:42;;;;;;;34.20;6.47;;;;;;;;;;5031261;28;20021;-89
2021/10/27 08:52:10;;;;;;;41.72;6.90;;;;;;;;;;5012713;28;20099;-89
2021/10/27 08:54:36;;;;;;;35.72;7.30;;;;;;;;;;5012483;28;20021;-89
2021/10/27 08:57:02;;;;;;;26.38;5.43;;;;;;;;;;5012820;28;20436;-89
2021/10/27 09:08:19;;;;;;;33.55;6.90;;;;;;;;;;5025177;28;20112;-89
2021/10/27 09:16:25;;;;;;;31.15;6.25;;;;;;;;;;5030443;28;20486;-90
2021/10/27 10:06:27;;;;;;;29.55;5.45;;;;;;;;;;5053962;28;20039;-89
2021/10/27 10:08:54;;;;;;;31.42;7.18;;;;;;;;;;5035202;28;20520;-89
2021/10/27 10:11:21;;;;;;;31.35;6.13;;;;;;;;;;5054598;28;20028;-91
2021/10/27 10:13:47;;;;;;;27.80;6.30;;;;;;;;;;5036412;28;20024;-90
2021/10/27 10:16:14;;;;;;;34.13;5.85;;;;;;;;;;5035517;28;20036;-89
2021/10/27 10:18:39;;;;;;;28.83;5.32;;;;;;;;;;5035321;28;20024;-89
2021/10/27 10:21:05;;;;;;;37.72;6.30;;;;;;;;;;5039458;28;20021;-89
2021/10/27 10:23:31;;;;;;;26.52;5.18;;;;;;;;;;5035588;28;20032;-89
2021/10/27 10:25:57;;;;;;;39.42;8.10;;;;;;;;;;5035375;28;20036;-89
2021/10/27 10:28:36;;;;;;;26.80;4.82;;;;;;;;;;5035540;28;20070;-89
2021/10/27 10:31:03;;;;;;;30.42;5.07;;;;;;;;;;5024826;28;20468;-91
2021/10/27 10:33:46;;;;;;;29.40;6.53;;;;;;;;;;5015055;28;20032;-89
2021/10/27 10:36:25;;;;;;;36.40;6.35;;;;;;;;;;5014756;28;20848;-89
2021/10/27 10:39:11;;;;;;;29.92;6.18;;;;;;;;;;5014757;28;20048;-89
2021/10/27 10:55:48;;;;;;;38.03;6.13;;;;;;;;;;5036554;28;20165;-89
2021/10/27 11:02:36;;;;;;;37.72;6.28;;;;;;;;;;5044746;28;20389;-89
2021/10/27 11:40:29;;;;;;;44.38;7.65;;;;;;;;;;5046790;28;20044;-91
2021/10/27 11:43:00;;;;;;;32.88;8.40;;;;;;;;;;5013597;28;20087;-89
2021/10/27 11:48:03;;;;;;;33.28;6.45;;;;;;;;;;5031814;28;20030;-89
2021/10/27 11:50:33;;;;;;;37.65;7.05;;;;;;;;;;5019654;28;20045;-89
2021/10/27 11:53:00;;;;;;;36.30;7.00;;;;;;;;;;5033211;28;20024;-89
2021/10/27 11:55:28;;;;;;;37.92;7.03;;;;;;;;;;5032653;28;20548;-89
2021/10/27 11:57:53;;;;;;;30.67;7.07;;;;;;;;;;5050879;28;20029;-89
2021/10/27 12:00:26;;;;;;;35.60;7.32;;;;;;;;;;5050506;28;20112;-90
2021/10/27 12:03:04;;;;;;;28.50;7.47;;;;;;;;;;5027583;28;20415;-89
2021/10/27 12:16:25;;;;;;;40.90;7.72;;;;;;;;;;5030129;28;20427;-89
2021/10/27 12:18:55;;;;;;;38.42;8.50;;;;;;;;;;5012907;28;20033;-89
2021/10/27 12:21:21;;;;;;;30.40;7.20;;;;;;;;;;5026126;28;20048;-89
2021/10/27 12:23:50;;;;;;;28.85;6.60;;;;;;;;;;5032643;28;20023;-89
2021/10/27 12:26:17;;;;;;;34.55;6.53;;;;;;;;;;5049643;28;20067;-89
2021/10/27 12:28:43;;;;;;;28.10;6.00;;;;;;;;;;5024414;28;20099;-89
2021/10/27 12:31:16;;;;;;;29.10;6.15;;;;;;;;;;5024228;28;20020;-89
2021/10/27 12:33:43;;;;;;;30.52;5.70;;;;;;;;;;5032854;28;20523;-89
2021/10/27 12:36:17;;;;;;;34.47;8.02;;;;;;;;;;5032599;28;20039;-89
2021/10/27 12:39:03;;;;;;;30.90;7.05;;;;;;;;;;5032868;28;20021;-89
2021/10/27 12:41:28;;;;;;;37.35;8.07;;;;;;;;;;5017942;28;20036;-89
2021/10/27 12:43:54;;;;;;;29.48;7.18;;;;;;;;;;5012588;28;20029;-89
2021/10/27 12:46:22;;;;;;;39.38;7.18;;;;;;;;;;5012415;28;20040;-89
2021/10/27 12:48:47;;;;;;;37.55;7.22;;;;;;;;;;5012667;28;20028;-90
2021/10/27 12:51:13;;;;;;;37.70;7.45;;;;;;;;;;5024667;28;20151;-89
2021/10/27 12:53:43;;;;;;;27.77;7.22;;;;;;;;;;5016791;28;20025;-89
2021/10/27 12:56:13;;;;;;;26.83;6.78;;;;;;;;;;5012328;28;20087;-89
2021/10/27 12:58:48;;;;;;;36.17;7.93;;;;;;;;;;5012632;28;20026;-89
2021/10/27 13:01:16;;;;;;;32.33;7.75;;;;;;;;;;5024705;28;20033;-89
2021/10/27 13:10:04;;;;;;;31.20;8.05;;;;;;;;;;5030188;28;20032;-89
2021/10/27 13:30:45;;;;;;;27.35;7.00;;;;;;;;;;5043252;28;20388;-89
2021/10/27 13:33:10;;;;;;;27.42;6.13;;;;;;;;;;5012061;28;20041;-89
2021/10/27 13:35:36;;;;;;;26.67;6.18;;;;;;;;;;5012061;28;20025;-89
2021/10/27 13:38:05;;;;;;;30.25;6.18;;;;;;;;;;5033222;28;20033;-89
2021/10/27 13:40:32;;;;;;;29.48;6.57;;;;;;;;;;5022062;28;20048;-90
2021/10/27 13:43:08;;;;;;;28.42;6.75;;;;;;;;;;5035639;28;20028;-89
2021/10/27 14:07:18;;;;;;;32.72;8.10;;;;;;;;;;5042587;28;20033;-88
2021/10/27 14:14:42;;;;;;;27.47;5.93;;;;;;;;;;5053157;28;20060;-89
2021/10/27 15:45:29;;;;;;;22.13;5.63;;;;;;;;;;5031639;28;20065;-89
2021/10/27 15:50:47;;;;;;;24.77;5.43;;;;;;;;;;5038503;28;20144;-90
2021/10/27 15:53:12;;;;;;;24.10;4.95;;;;;;;;;;5051281;28;20077;-89
2021/10/27 15:55:37;;;;;;;26.33;4.70;;;;;;;;;;5051174;28;20044;-89
2021/10/27 15:58:03;;;;;;;28.00;5.35;;;;;;;;;;5033257;28;20044;-89
2021/10/27 16:00:29;;;;;;;28.88;6.03;;;;;;;;;;5033070;28;20021;-89
2021/10/27 16:02:54;;;;;;;26.85;6.13;;;;;;;;;;5032979;28;20092;-89
2021/10/27 16:05:19;;;;;;;23.20;5.25;;;;;;;;;;5032900;28;20075;-89
2021/10/27 16:07:47;;;;;;;14.50;5.25;;;;;;;;;;5032945;28;20028;-89
2021/10/27 16:10:17;;;;;;;22.33;4.88;;;;;;;;;;5028929;28;20025;-89
2021/10/27 16:12:43;;;;;;;25.23;6.03;;;;;;;;;;5013261;28;20045;-89
2021/10/27 16:15:14;;;;;;;19.90;4.32;;;;;;;;;;5013327;28;20025;-89
2021/10/27 16:17:40;;;;;;;20.10;4.70;;;;;;;;;;5030948;28;20021;-89
2021/10/27 16:20:06;;;;;;;25.23;5.85;;;;;;;;;;5030727;28;20021;-89
2021/10/27 16:22:31;;;;;;;20.60;5.10;;;;;;;;;;5031001;28;20451;-89
2021/10/27 16:24:56;;;;;;;23.55;5.00;;;;;;;;;;5030888;28;20123;-89
2021/10/27 16:27:21;;;;;;;19.53;5.00;;;;;;;;;;5013358;28;20553;-89
2021/10/27 16:29:46;;;;;;;22.07;4.80;;;;;;;;;;5031174;28;20264;-89
2021/10/27 16:32:12;;;;;;;16.67;4.97;;;;;;;;;;5032693;28;20266;-89
2021/10/27 16:34:37;;;;;;;16.80;5.75;;;;;;;;;;5050431;28;20260;-89
2021/10/27 16:37:02;;;;;;;20.05;5.45;;;;;;;;;;5032600;28;20117;-89
2021/10/27 16:39:28;;;;;;;24.20;5.05;;;;;;;;;;5032529;28;20025;-90
2021/10/27 16:41:53;;;;;;;25.92;5.72;;;;;;;;;;5014571;28;20384;-89
2021/10/27 16:44:18;;;;;;;20.85;5.70;;;;;;;;;;5012100;28;20028;-89
2021/10/27 16:46:44;;;;;;;18.35;5.43;;;;;;;;;;5030519;28;20359;-89
2021/10/27 16:49:09;;;;;;;23.03;6.00;;;;;;;;;;5012766;28;20029;-89
2021/10/27 16:51:34;;;;;;;23.58;5.63;;;;;;;;;;5027708;28;20377;-89
2021/10/27 16:54:01;;;;;;;18.55;5.32;;;;;;;;;;5050020;28;20436;-89
2021/10/27 16:56:27;;;;;;;22.70;5.22;;;;;;;;;;5049850;28;20096;-89
2021/10/27 16:58:52;;;;;;;22.63;5.32;;;;;;;;;;5032295;28;20028;-89
2021/10/27 17:01:17;;;;;;;26.87;6.70;;;;;;;;;;5037603;28;20028;-89
2021/10/27 17:03:42;;;;;;;21.23;5.80;;;;;;;;;;5012422;28;20326;-89
2021/10/27 17:06:09;;;;;;;24.50;6.13;;;;;;;;;;5012213;28;20026;-89
2021/10/27 17:08:35;;;;;;;23.80;6.85;;;;;;;;;;5012531;28;20322;-89
2021/10/27 17:11:01;;;;;;;20.55;4.97;;;;;;;;;;5023753;28;20080;-90
2021/10/27 17:13:27;;;;;;;15.40;4.70;;;;;;;;;;5052453;28;20029;-89
2021/10/27 17:15:52;;;;;;;20.40;5.93;;;;;;;;;;5035673;28;20548;-90
2021/10/27 17:18:17;;;;;;;23.73;5.82;;;;;;;;;;5035941;28;20111;-89
2021/10/27 17:20:44;;;;;;;20.88;5.32;;;;;;;;;;5027602;28;20025;-89
2021/10/27 17:23:16;;;;;;;22.17;4.82;;;;;;;;;;5016266;28;20129;-89
2021/10/27 17:25:41;;;;;;;25.08;5.53;;;;;;;;;;5033975;28;20059;-89
2021/10/27 17:28:06;;;;;;;18.67;4.28;;;;;;;;;;5016215;28;20013;-89
2021/10/27 17:30:36;;;;;;;15.93;4.55;;;;;;;;;;5022548;28;20021;-90
2021/10/27 17:33:01;;;;;;;17.10;4.45;;;;;;;;;;5035859;28;20054;-89
2021/10/27 17:35:27;;;;;;;19.42;5.35;;;;;;;;;;5053785;28;20028;-89
2021/10/27 17:37:52;;;;;;;23.67;5.00;;;;;;;;;;5035883;28;20033;-89
2021/10/27 17:40:44;;;;;;;29.08;4.95;;;;;;;;;;5035861;28;20051;-89
2021/10/27 17:43:10;;;;;;;21.60;4.35;;;;;;;;;;5036148;28;20025;-89
2021/10/27 17:45:39;;;;;;;19.17;5.22;;;;;;;;;;5160513;22;20173;-90
2021/10/27 18:01:00;;;;;;;19.80;5.35;;;;;;;;;;5052104;28;20063;-88
2021/10/27 18:03:25;;;;;;;25.63;5.63;;;;;;;;;;5052153;28;20028;-89
2021/10/27 18:05:51;;;;;;;19.83;5.75;;;;;;;;;;5053365;28;20473;-89
2021/10/27 18:08:19;;;;;;;20.58;5.18;;;;;;;;;;5053690;28;20025;-89
2021/10/27 18:10:45;;;;;;;18.48;5.43;;;;;;;;;;5050732;28;20457;-89
2021/10/27 18:13:16;;;;;;;22.80;6.43;;;;;;;;;;5051724;28;20031;-89
2021/10/27 18:15:46;;;;;;;23.02;6.68;;;;;;;;;;5053022;28;20025;-89
2021/10/27 18:18:28;;;;;;;18.93;6.90;;;;;;;;;;5050228;28;20033;-90
2021/10/27 18:20:54;;;;;;;18.70;5.65;;;;;;;;;;5042246;28;20033;-88
2021/10/27 18:23:33;;;;;;;16.33;5.25;;;;;;;;;;5032027;28;20386;-89
2021/10/27 18:37:10;;;;;;;17.58;6.25;;;;;;;;;;5053027;28;20055;-88
2021/10/27 18:39:56;;;;;;;21.55;7.93;;;;;;;;;;5051365;28;20021;-88
2021/10/27 18:42:23;;;;;;;22.45;8.10;;;;;;;;;;5053021;28;20545;-88
2021/10/27 18:44:49;;;;;;;30.02;8.55;;;;;;;;;;5051284;28;20798;-88
2021/10/27 18:47:15;;;;;;;28.00;9.17;;;;;;;;;;5051260;28;20035;-88
2021/10/27 18:49:40;;;;;;;21.83;9.02;;;;;;;;;;5052619;28;20266;-88
2021/10/27 18:52:22;;;;;;;22.90;9.35;;;;;;;;;;5052314;28;20013;-88
2021/10/27 18:54:53;;;;;;;27.85;9.63;;;;;;;;;;5051562;28;20024;-88
2021/10/27 18:57:44;;;;;;;24.30;9.45;;;;;;;;;;5052599;28;20106;-89
2021/10/27 19:11:17;;;;;;;27.13;12.02;;;;;;;;;;5052092;28;20133;-88
2021/10/27 19:13:59;;;;;;;26.20;10.57;;;;;;;;;;5051116;28;20044;-88
2021/10/27 19:16:25;;;;;;;23.13;11.27;;;;;;;;;;5050486;28;20029;-88
2021/10/27 19:18:50;;;;;;;28.07;10.93;;;;;;;;;;5050761;28;20028;-89
2021/10/27 19:21:15;;;;;;;25.77;11.82;;;;;;;;;;5051978;28;20749;-88
2021/10/27 19:23:41;;;;;;;31.42;12.23;;;;;;;;;;5052057;28;20032;-88
2021/10/27 19:26:20;;;;;;;26.15;11.68;;;;;;;;;;5050301;28;20413;-88
2021/10/27 19:28:51;;;;;;;31.90;13.00;;;;;;;;;;5050280;28;20090;-88
2021/10/27 20:48:33;;;;;;;24.35;12.10;;;;;;;;;;5027003;28;20538;-89
2021/10/27 20:55:30;;;;;;;25.65;10.95;;;;;;;;;;5050794;28;20029;-88
2021/10/27 21:00:41;;;;;;;31.45;10.75;;;;;;;;;;5050903;28;20052;-88
2021/10/27 21:03:28;;;;;;;22.33;10.98;;;;;;;;;;5050410;28;20028;-88
2021/10/27 21:14:01;;;;;;;26.75;10.90;;;;;;;;;;5050832;28;20039;-88
2021/10/27 21:16:26;;;;;;;26.55;10.65;;;;;;;;;;5050693;28;20112;-88
2021/10/27 21:18:52;;;;;;;28.00;9.35;;;;;;;;;;5049733;28;20024;-88
2021/10/27 21:21:17;;;;;;;23.30;9.43;;;;;;;;;;5050205;28;20028;-88
2021/10/27 21:23:42;;;;;;;31.80;10.50;;;;;;;;;;5049195;28;20090;-88
2021/10/27 21:26:08;;;;;;;30.23;9.27;;;;;;;;;;5050145;28;20495;-88
2021/10/27 21:31:12;;;;;;;22.13;8.87;;;;;;;;;;5050504;28;20106;-88
2021/10/27 21:44:26;;;;;;;20.67;7.35;;;;;;;;;;5050652;28;20087;-88
2021/10/27 21:46:51;;;;;;;21.63;7.20;;;;;;;;;;5050605;28;20032;-88
2021/10/27 21:49:17;;;;;;;17.27;7.75;;;;;;;;;;5048773;28;20299;-88
2021/10/27 21:51:42;;;;;;;18.98;7.40;;;;;;;;;;5048738;28;20049;-88
2021/10/27 21:54:07;;;;;;;17.95;7.75;;;;;;;;;;5050140;28;20104;-88
2021/10/27 21:56:33;;;;;;;17.58;6.93;;;;;;;;;;5048408;28;20849;-88
2021/10/27 21:58:58;;;;;;;16.20;6.32;;;;;;;;;;5053771;28;20033;-88
2021/10/27 22:01:23;;;;;;;19.65;6.35;;;;;;;;;;5052045;28;20025;-89
2021/10/27 22:03:49;;;;;;;18.40;7.35;;;;;;;;;;5053744;28;20020;-89
2021/10/27 22:06:14;;;;;;;26.10;7.15;;;;;;;;;;5052462;28;20029;-88
2021/10/27 22:08:39;;;;;;;19.10;7.20;;;;;;;;;;5052311;28;20017;-88
2021/10/27 22:11:05;;;;;;;17.95;6.13;;;;;;;;;;5051823;28;20032;-88
2021/10/27 22:13:32;;;;;;;27.90;7.15;;;;;;;;;;5051797;28;20403;-88
2021/10/27 22:15:57;;;;;;;18.60;6.00;;;;;;;;;;5051997;28;20024;-88